sensor_id;sensor_type;location;lat;lon;timestamp;P1;durP1;ratioP1;P2;durP2;ratioP2
23181;SDS011;11759;51.282;6.642;2022-10-16T00:00:02;14.13;;;5.75;;
23181;SDS011;11759;51.282;6.642;2022-10-16T00:02:30;12.30;;;5.63;;
23181;SDS011;11759;51.282;6.642;2022-10-16T00:04:56;9.50;;;5.68;;
23181;SDS011;11759;51.282;6.642;2022-10-16T00:07:23;11.63;;;5.80;;
23181;SDS011;11759;51.282;6.642;2022-10-16T00:09:50;10.48;;;5.55;;
23181;SDS011;11759;51.282;6.642;2022-10-16T00:12:16;13.98;;;4.88;;
23181;SDS011;11759;51.282;6.642;2022-10-16T00:14:43;11.77;;;4.88;;
23181;SDS011;11759;51.282;6.642;2022-10-16T00:17:10;9.40;;;4.75;;
23181;SDS011;11759;51.282;6.642;2022-10-16T00:19:37;8.07;;;4.80;;
23181;SDS011;11759;51.282;6.642;2022-10-16T00:22:04;6.43;;;4.38;;
23181;SDS011;11759;51.282;6.642;2022-10-16T00:24:30;11.18;;;4.30;;
23181;SDS011;11759;51.282;6.642;2022-10-16T00:26:57;9.60;;;4.30;;
23181;SDS011;11759;51.282;6.642;2022-10-16T00:29:23;13.13;;;4.38;;
23181;SDS011;11759;51.282;6.642;2022-10-16T00:31:50;9.68;;;4.15;;
23181;SDS011;11759;51.282;6.642;2022-10-16T00:34:16;8.05;;;3.90;;
23181;SDS011;11759;51.282;6.642;2022-10-16T00:36:43;7.13;;;3.83;;
23181;SDS011;11759;51.282;6.642;2022-10-16T00:39:10;14.75;;;4.43;;
23181;SDS011;11759;51.282;6.642;2022-10-16T00:41:36;14.20;;;3.53;;
23181;SDS011;11759;51.282;6.642;2022-10-16T00:44:40;8.25;;;3.40;;
23181;SDS011;11759;51.282;6.642;2022-10-16T00:47:13;7.28;;;3.33;;
23181;SDS011;11759;51.282;6.642;2022-10-16T00:50:24;7.47;;;3.50;;
23181;SDS011;11759;51.282;6.642;2022-10-16T00:52:50;7.40;;;2.85;;
23181;SDS011;11759;51.282;6.642;2022-10-16T00:55:18;9.00;;;3.40;;
23181;SDS011;11759;51.282;6.642;2022-10-16T00:57:45;10.20;;;3.25;;
23181;SDS011;11759;51.282;6.642;2022-10-16T01:00:14;13.20;;;3.33;;
23181;SDS011;11759;51.282;6.642;2022-10-16T01:02:44;9.27;;;3.00;;
23181;SDS011;11759;51.282;6.642;2022-10-16T01:05:11;4.30;;;2.78;;
23181;SDS011;11759;51.282;6.642;2022-10-16T01:12:50;10.80;;;3.60;;
23181;SDS011;11759;51.282;6.642;2022-10-16T01:18:11;10.05;;;3.15;;
23181;SDS011;11759;51.282;6.642;2022-10-16T01:20:45;10.73;;;4.20;;
23181;SDS011;11759;51.282;6.642;2022-10-16T01:24:01;7.10;;;2.78;;
23181;SDS011;11759;51.282;6.642;2022-10-16T01:28:40;5.18;;;2.60;;
23181;SDS011;11759;51.282;6.642;2022-10-16T01:31:09;6.10;;;2.88;;
23181;SDS011;11759;51.282;6.642;2022-10-16T01:33:39;5.25;;;2.90;;
23181;SDS011;11759;51.282;6.642;2022-10-16T01:36:12;9.57;;;2.85;;
23181;SDS011;11759;51.282;6.642;2022-10-16T01:41:11;8.35;;;3.78;;
23181;SDS011;11759;51.282;6.642;2022-10-16T01:43:43;5.65;;;2.40;;
23181;SDS011;11759;51.282;6.642;2022-10-16T01:46:13;4.88;;;2.53;;
23181;SDS011;11759;51.282;6.642;2022-10-16T01:48:40;6.05;;;2.35;;
23181;SDS011;11759;51.282;6.642;2022-10-16T01:51:08;3.20;;;2.50;;
23181;SDS011;11759;51.282;6.642;2022-10-16T01:53:38;7.47;;;2.67;;
23181;SDS011;11759;51.282;6.642;2022-10-16T01:56:07;7.05;;;3.50;;
23181;SDS011;11759;51.282;6.642;2022-10-16T01:58:36;7.45;;;2.70;;
23181;SDS011;11759;51.282;6.642;2022-10-16T02:01:05;8.73;;;2.58;;
23181;SDS011;11759;51.282;6.642;2022-10-16T02:03:34;7.80;;;2.67;;
23181;SDS011;11759;51.282;6.642;2022-10-16T02:06:04;9.25;;;2.30;;
23181;SDS011;11759;51.282;6.642;2022-10-16T02:08:30;12.20;;;2.70;;
23181;SDS011;11759;51.282;6.642;2022-10-16T02:10:58;5.85;;;2.72;;
23181;SDS011;11759;51.282;6.642;2022-10-16T02:16:05;5.50;;;2.45;;
23181;SDS011;11759;51.282;6.642;2022-10-16T02:18:32;7.68;;;3.17;;
23181;SDS011;11759;51.282;6.642;2022-10-16T02:21:00;3.53;;;2.22;;
23181;SDS011;11759;51.282;6.642;2022-10-16T02:23:35;10.48;;;3.45;;
23181;SDS011;11759;51.282;6.642;2022-10-16T02:26:06;5.68;;;2.67;;
23181;SDS011;11759;51.282;6.642;2022-10-16T02:28:39;8.68;;;2.10;;
23181;SDS011;11759;51.282;6.642;2022-10-16T02:31:10;6.32;;;3.05;;
23181;SDS011;11759;51.282;6.642;2022-10-16T02:33:38;8.55;;;3.28;;
23181;SDS011;11759;51.282;6.642;2022-10-16T02:36:06;6.32;;;2.45;;
23181;SDS011;11759;51.282;6.642;2022-10-16T02:38:33;7.15;;;2.50;;
23181;SDS011;11759;51.282;6.642;2022-10-16T02:41:00;4.55;;;2.17;;
23181;SDS011;11759;51.282;6.642;2022-10-16T02:43:27;3.47;;;2.10;;
23181;SDS011;11759;51.282;6.642;2022-10-16T02:45:54;9.88;;;2.60;;
23181;SDS011;11759;51.282;6.642;2022-10-16T02:48:20;5.10;;;2.15;;
23181;SDS011;11759;51.282;6.642;2022-10-16T02:50:47;3.53;;;2.30;;
23181;SDS011;11759;51.282;6.642;2022-10-16T02:53:13;3.53;;;1.98;;
23181;SDS011;11759;51.282;6.642;2022-10-16T02:55:40;4.35;;;1.77;;
23181;SDS011;11759;51.282;6.642;2022-10-16T02:58:06;4.28;;;1.92;;
23181;SDS011;11759;51.282;6.642;2022-10-16T03:00:33;3.92;;;1.80;;
23181;SDS011;11759;51.282;6.642;2022-10-16T03:02:59;5.10;;;1.95;;
23181;SDS011;11759;51.282;6.642;2022-10-16T03:05:26;7.22;;;1.58;;
23181;SDS011;11759;51.282;6.642;2022-10-16T03:07:52;2.75;;;1.70;;
23181;SDS011;11759;51.282;6.642;2022-10-16T03:10:19;3.42;;;1.52;;
23181;SDS011;11759;51.282;6.642;2022-10-16T03:12:46;5.38;;;2.13;;
23181;SDS011;11759;51.282;6.642;2022-10-16T03:15:12;4.43;;;1.60;;
23181;SDS011;11759;51.282;6.642;2022-10-16T03:17:39;5.53;;;1.70;;
23181;SDS011;11759;51.282;6.642;2022-10-16T03:20:05;4.85;;;1.63;;
23181;SDS011;11759;51.282;6.642;2022-10-16T03:22:32;3.58;;;1.40;;
23181;SDS011;11759;51.282;6.642;2022-10-16T03:24:59;3.83;;;1.60;;
23181;SDS011;11759;51.282;6.642;2022-10-16T03:27:25;5.22;;;1.60;;
23181;SDS011;11759;51.282;6.642;2022-10-16T03:29:53;6.05;;;1.75;;
23181;SDS011;11759;51.282;6.642;2022-10-16T03:32:19;5.53;;;1.60;;
23181;SDS011;11759;51.282;6.642;2022-10-16T03:34:46;4.63;;;1.67;;
23181;SDS011;11759;51.282;6.642;2022-10-16T03:37:12;6.90;;;1.52;;
23181;SDS011;11759;51.282;6.642;2022-10-16T03:39:39;5.32;;;1.42;;
23181;SDS011;11759;51.282;6.642;2022-10-16T03:42:05;3.55;;;1.52;;
23181;SDS011;11759;51.282;6.642;2022-10-16T03:44:32;4.82;;;1.40;;
23181;SDS011;11759;51.282;6.642;2022-10-16T03:46:59;9.93;;;1.75;;
23181;SDS011;11759;51.282;6.642;2022-10-16T03:49:25;6.13;;;2.08;;
23181;SDS011;11759;51.282;6.642;2022-10-16T03:51:52;2.17;;;1.45;;
23181;SDS011;11759;51.282;6.642;2022-10-16T03:54:18;4.80;;;1.48;;
23181;SDS011;11759;51.282;6.642;2022-10-16T03:56:45;4.90;;;2.13;;
23181;SDS011;11759;51.282;6.642;2022-10-16T03:59:12;6.82;;;1.80;;
23181;SDS011;11759;51.282;6.642;2022-10-16T04:01:38;4.03;;;1.40;;
23181;SDS011;11759;51.282;6.642;2022-10-16T04:04:05;4.22;;;1.70;;
23181;SDS011;11759;51.282;6.642;2022-10-16T04:06:31;12.13;;;2.10;;
23181;SDS011;11759;51.282;6.642;2022-10-16T04:08:58;5.30;;;1.80;;
23181;SDS011;11759;51.282;6.642;2022-10-16T04:11:24;2.85;;;1.80;;
23181;SDS011;11759;51.282;6.642;2022-10-16T04:13:51;4.35;;;1.83;;
23181;SDS011;11759;51.282;6.642;2022-10-16T04:16:17;2.72;;;1.73;;
23181;SDS011;11759;51.282;6.642;2022-10-16T04:18:44;3.58;;;1.73;;
23181;SDS011;11759;51.282;6.642;2022-10-16T04:21:10;5.13;;;2.05;;
23181;SDS011;11759;51.282;6.642;2022-10-16T04:23:37;5.90;;;2.20;;
23181;SDS011;11759;51.282;6.642;2022-10-16T04:26:04;2.95;;;1.95;;
23181;SDS011;11759;51.282;6.642;2022-10-16T04:28:30;11.05;;;2.20;;
23181;SDS011;11759;51.282;6.642;2022-10-16T04:30:57;4.75;;;1.88;;
23181;SDS011;11759;51.282;6.642;2022-10-16T04:33:23;6.30;;;2.03;;
23181;SDS011;11759;51.282;6.642;2022-10-16T04:35:55;7.32;;;2.28;;
23181;SDS011;11759;51.282;6.642;2022-10-16T04:38:23;5.97;;;2.30;;
23181;SDS011;11759;51.282;6.642;2022-10-16T04:40:50;2.42;;;1.92;;
23181;SDS011;11759;51.282;6.642;2022-10-16T04:43:17;4.43;;;2.30;;
23181;SDS011;11759;51.282;6.642;2022-10-16T04:45:43;4.22;;;2.58;;
23181;SDS011;11759;51.282;6.642;2022-10-16T04:48:10;3.13;;;2.00;;
23181;SDS011;11759;51.282;6.642;2022-10-16T04:50:37;6.50;;;2.33;;
23181;SDS011;11759;51.282;6.642;2022-10-16T04:53:04;7.57;;;2.50;;
23181;SDS011;11759;51.282;6.642;2022-10-16T04:55:31;3.75;;;2.25;;
23181;SDS011;11759;51.282;6.642;2022-10-16T04:57:58;4.70;;;2.47;;
23181;SDS011;11759;51.282;6.642;2022-10-16T05:00:25;7.53;;;2.08;;
23181;SDS011;11759;51.282;6.642;2022-10-16T05:02:51;6.68;;;2.53;;
23181;SDS011;11759;51.282;6.642;2022-10-16T05:05:18;7.68;;;2.30;;
23181;SDS011;11759;51.282;6.642;2022-10-16T05:07:46;4.80;;;2.30;;
23181;SDS011;11759;51.282;6.642;2022-10-16T05:10:13;5.82;;;2.05;;
23181;SDS011;11759;51.282;6.642;2022-10-16T05:12:39;2.75;;;1.92;;
23181;SDS011;11759;51.282;6.642;2022-10-16T05:15:06;5.93;;;2.55;;
23181;SDS011;11759;51.282;6.642;2022-10-16T05:17:33;10.50;;;2.58;;
23181;SDS011;11759;51.282;6.642;2022-10-16T05:20:00;5.95;;;2.10;;
23181;SDS011;11759;51.282;6.642;2022-10-16T05:22:26;6.70;;;2.10;;
23181;SDS011;11759;51.282;6.642;2022-10-16T05:24:53;3.75;;;2.53;;
23181;SDS011;11759;51.282;6.642;2022-10-16T05:27:19;5.60;;;2.33;;
23181;SDS011;11759;51.282;6.642;2022-10-16T05:29:46;6.82;;;2.45;;
23181;SDS011;11759;51.282;6.642;2022-10-16T05:32:14;8.70;;;2.30;;
23181;SDS011;11759;51.282;6.642;2022-10-16T05:34:41;7.00;;;2.75;;
23181;SDS011;11759;51.282;6.642;2022-10-16T05:37:07;6.38;;;2.67;;
23181;SDS011;11759;51.282;6.642;2022-10-16T05:39:34;5.60;;;2.17;;
23181;SDS011;11759;51.282;6.642;2022-10-16T05:42:03;3.85;;;2.60;;
23181;SDS011;11759;51.282;6.642;2022-10-16T05:44:30;3.67;;;2.50;;
23181;SDS011;11759;51.282;6.642;2022-10-16T05:46:57;8.45;;;2.53;;
23181;SDS011;11759;51.282;6.642;2022-10-16T05:49:24;6.10;;;2.50;;
23181;SDS011;11759;51.282;6.642;2022-10-16T05:51:50;6.93;;;2.38;;
23181;SDS011;11759;51.282;6.642;2022-10-16T05:54:17;5.75;;;2.58;;
23181;SDS011;11759;51.282;6.642;2022-10-16T05:56:43;10.77;;;3.00;;
23181;SDS011;11759;51.282;6.642;2022-10-16T05:59:10;6.40;;;2.60;;
23181;SDS011;11759;51.282;6.642;2022-10-16T06:01:36;7.15;;;2.58;;
23181;SDS011;11759;51.282;6.642;2022-10-16T06:04:03;11.55;;;2.85;;
23181;SDS011;11759;51.282;6.642;2022-10-16T06:06:30;3.92;;;2.53;;
23181;SDS011;11759;51.282;6.642;2022-10-16T06:08:57;13.77;;;3.00;;
23181;SDS011;11759;51.282;6.642;2022-10-16T06:11:28;4.80;;;2.50;;
23181;SDS011;11759;51.282;6.642;2022-10-16T06:13:57;5.82;;;2.55;;
23181;SDS011;11759;51.282;6.642;2022-10-16T06:16:25;5.78;;;3.10;;
23181;SDS011;11759;51.282;6.642;2022-10-16T06:18:52;7.43;;;2.75;;
23181;SDS011;11759;51.282;6.642;2022-10-16T06:21:21;6.05;;;3.25;;
23181;SDS011;11759;51.282;6.642;2022-10-16T06:23:48;6.70;;;3.08;;
23181;SDS011;11759;51.282;6.642;2022-10-16T06:26:16;4.88;;;3.00;;
23181;SDS011;11759;51.282;6.642;2022-10-16T06:28:44;8.18;;;2.88;;
23181;SDS011;11759;51.282;6.642;2022-10-16T06:31:11;9.98;;;3.15;;
23181;SDS011;11759;51.282;6.642;2022-10-16T06:33:38;11.18;;;3.35;;
23181;SDS011;11759;51.282;6.642;2022-10-16T06:36:10;4.78;;;3.10;;
23181;SDS011;11759;51.282;6.642;2022-10-16T06:38:40;7.85;;;3.30;;
23181;SDS011;11759;51.282;6.642;2022-10-16T06:41:08;5.20;;;3.10;;
23181;SDS011;11759;51.282;6.642;2022-10-16T06:43:37;4.88;;;3.10;;
23181;SDS011;11759;51.282;6.642;2022-10-16T06:46:04;6.30;;;3.45;;
23181;SDS011;11759;51.282;6.642;2022-10-16T06:48:34;7.90;;;3.70;;
23181;SDS011;11759;51.282;6.642;2022-10-16T06:53:29;7.68;;;3.25;;
23181;SDS011;11759;51.282;6.642;2022-10-16T06:56:15;10.15;;;3.28;;
23181;SDS011;11759;51.282;6.642;2022-10-16T06:58:43;6.93;;;3.60;;
23181;SDS011;11759;51.282;6.642;2022-10-16T07:01:10;7.38;;;2.85;;
23181;SDS011;11759;51.282;6.642;2022-10-16T07:03:38;10.38;;;3.00;;
23181;SDS011;11759;51.282;6.642;2022-10-16T07:06:10;5.85;;;2.65;;
23181;SDS011;11759;51.282;6.642;2022-10-16T07:08:38;4.15;;;3.00;;
23181;SDS011;11759;51.282;6.642;2022-10-16T07:11:07;9.23;;;2.85;;
23181;SDS011;11759;51.282;6.642;2022-10-16T07:13:36;6.85;;;2.78;;
23181;SDS011;11759;51.282;6.642;2022-10-16T07:16:06;7.40;;;2.70;;
23181;SDS011;11759;51.282;6.642;2022-10-16T07:18:37;6.15;;;2.63;;
23181;SDS011;11759;51.282;6.642;2022-10-16T07:21:09;3.83;;;2.90;;
23181;SDS011;11759;51.282;6.642;2022-10-16T07:23:37;3.65;;;2.58;;
23181;SDS011;11759;51.282;6.642;2022-10-16T07:26:04;4.57;;;2.40;;
23181;SDS011;11759;51.282;6.642;2022-10-16T07:28:31;6.85;;;3.15;;
23181;SDS011;11759;51.282;6.642;2022-10-16T07:31:01;3.58;;;2.80;;
23181;SDS011;11759;51.282;6.642;2022-10-16T07:33:29;6.85;;;3.13;;
23181;SDS011;11759;51.282;6.642;2022-10-16T07:35:55;9.82;;;2.65;;
23181;SDS011;11759;51.282;6.642;2022-10-16T07:38:22;6.95;;;2.50;;
23181;SDS011;11759;51.282;6.642;2022-10-16T07:40:55;3.15;;;2.00;;
23181;SDS011;11759;51.282;6.642;2022-10-16T07:43:23;5.70;;;1.67;;
23181;SDS011;11759;51.282;6.642;2022-10-16T07:45:50;6.03;;;1.85;;
23181;SDS011;11759;51.282;6.642;2022-10-16T07:48:17;5.30;;;1.80;;
23181;SDS011;11759;51.282;6.642;2022-10-16T07:50:44;3.38;;;1.50;;
23181;SDS011;11759;51.282;6.642;2022-10-16T07:53:11;6.35;;;1.70;;
23181;SDS011;11759;51.282;6.642;2022-10-16T07:55:37;4.18;;;1.30;;
23181;SDS011;11759;51.282;6.642;2022-10-16T07:58:04;8.73;;;1.73;;
23181;SDS011;11759;51.282;6.642;2022-10-16T08:00:31;4.45;;;1.60;;
23181;SDS011;11759;51.282;6.642;2022-10-16T08:02:58;2.53;;;1.40;;
23181;SDS011;11759;51.282;6.642;2022-10-16T08:05:27;5.65;;;1.30;;
23181;SDS011;11759;51.282;6.642;2022-10-16T08:07:54;5.80;;;1.40;;
23181;SDS011;11759;51.282;6.642;2022-10-16T08:10:22;3.83;;;1.40;;
23181;SDS011;11759;51.282;6.642;2022-10-16T08:12:51;9.05;;;1.50;;
23181;SDS011;11759;51.282;6.642;2022-10-16T08:15:18;2.67;;;1.10;;
23181;SDS011;11759;51.282;6.642;2022-10-16T08:17:53;5.38;;;1.80;;
23181;SDS011;11759;51.282;6.642;2022-10-16T08:20:24;4.13;;;1.27;;
23181;SDS011;11759;51.282;6.642;2022-10-16T08:22:51;5.43;;;1.20;;
23181;SDS011;11759;51.282;6.642;2022-10-16T08:25:17;4.25;;;1.25;;
23181;SDS011;11759;51.282;6.642;2022-10-16T08:27:44;4.65;;;1.40;;
23181;SDS011;11759;51.282;6.642;2022-10-16T08:30:11;3.33;;;1.60;;
23181;SDS011;11759;51.282;6.642;2022-10-16T08:32:37;3.17;;;1.25;;
23181;SDS011;11759;51.282;6.642;2022-10-16T08:35:04;3.70;;;1.33;;
23181;SDS011;11759;51.282;6.642;2022-10-16T08:37:31;2.25;;;1.02;;
23181;SDS011;11759;51.282;6.642;2022-10-16T08:39:58;5.93;;;1.38;;
23181;SDS011;11759;51.282;6.642;2022-10-16T08:42:35;4.68;;;1.27;;
23181;SDS011;11759;51.282;6.642;2022-10-16T08:45:08;6.65;;;1.23;;
23181;SDS011;11759;51.282;6.642;2022-10-16T08:50:18;6.88;;;1.45;;
23181;SDS011;11759;51.282;6.642;2022-10-16T08:52:50;4.05;;;1.35;;
23181;SDS011;11759;51.282;6.642;2022-10-16T08:58:14;3.58;;;1.20;;
23181;SDS011;11759;51.282;6.642;2022-10-16T09:00:42;2.35;;;0.93;;
23181;SDS011;11759;51.282;6.642;2022-10-16T09:03:16;1.67;;;1.10;;
23181;SDS011;11759;51.282;6.642;2022-10-16T09:11:48;2.90;;;1.23;;
23181;SDS011;11759;51.282;6.642;2022-10-16T09:23:13;2.42;;;1.00;;
23181;SDS011;11759;51.282;6.642;2022-10-16T09:25:46;5.30;;;1.05;;
23181;SDS011;11759;51.282;6.642;2022-10-16T09:28:14;4.60;;;0.95;;
23181;SDS011;11759;51.282;6.642;2022-10-16T09:30:42;3.00;;;1.00;;
23181;SDS011;11759;51.282;6.642;2022-10-16T09:33:09;3.55;;;1.00;;
23181;SDS011;11759;51.282;6.642;2022-10-16T09:35:44;2.60;;;0.90;;
23181;SDS011;11759;51.282;6.642;2022-10-16T09:41:20;1.90;;;1.00;;
23181;SDS011;11759;51.282;6.642;2022-10-16T09:46:22;3.90;;;0.93;;
23181;SDS011;11759;51.282;6.642;2022-10-16T09:48:51;2.70;;;0.90;;
23181;SDS011;11759;51.282;6.642;2022-10-16T09:51:22;3.10;;;0.88;;
23181;SDS011;11759;51.282;6.642;2022-10-16T09:54:01;2.90;;;0.98;;
23181;SDS011;11759;51.282;6.642;2022-10-16T09:56:39;1.88;;;0.70;;
23181;SDS011;11759;51.282;6.642;2022-10-16T09:59:11;2.85;;;1.13;;
23181;SDS011;11759;51.282;6.642;2022-10-16T10:01:39;4.13;;;0.80;;
23181;SDS011;11759;51.282;6.642;2022-10-16T10:04:08;2.50;;;0.88;;
23181;SDS011;11759;51.282;6.642;2022-10-16T10:06:43;8.93;;;1.23;;
23181;SDS011;11759;51.282;6.642;2022-10-16T10:12:02;2.35;;;0.70;;
23181;SDS011;11759;51.282;6.642;2022-10-16T10:19:51;2.50;;;0.70;;
23181;SDS011;11759;51.282;6.642;2022-10-16T10:22:39;4.45;;;0.90;;
23181;SDS011;11759;51.282;6.642;2022-10-16T10:27:39;4.10;;;0.90;;
23181;SDS011;11759;51.282;6.642;2022-10-16T10:41:15;2.75;;;0.98;;
23181;SDS011;11759;51.282;6.642;2022-10-16T10:47:17;2.72;;;0.90;;
23181;SDS011;11759;51.282;6.642;2022-10-16T10:58:18;4.47;;;1.20;;
23181;SDS011;11759;51.282;6.642;2022-10-16T11:00:51;3.97;;;0.93;;
23181;SDS011;11759;51.282;6.642;2022-10-16T11:06:34;2.67;;;0.80;;
23181;SDS011;11759;51.282;6.642;2022-10-16T11:09:08;3.63;;;1.00;;
23181;SDS011;11759;51.282;6.642;2022-10-16T11:11:56;7.30;;;0.98;;
23181;SDS011;11759;51.282;6.642;2022-10-16T11:14:26;4.82;;;1.02;;
23181;SDS011;11759;51.282;6.642;2022-10-16T11:17:02;5.20;;;1.10;;
23181;SDS011;11759;51.282;6.642;2022-10-16T11:22:36;4.05;;;1.00;;
23181;SDS011;11759;51.282;6.642;2022-10-16T11:25:06;6.15;;;0.90;;
23181;SDS011;11759;51.282;6.642;2022-10-16T11:27:44;2.50;;;1.10;;
23181;SDS011;11759;51.282;6.642;2022-10-16T11:30:39;8.38;;;1.00;;
23181;SDS011;11759;51.282;6.642;2022-10-16T11:33:24;3.65;;;0.82;;
23181;SDS011;11759;51.282;6.642;2022-10-16T11:44:04;3.50;;;0.90;;
23181;SDS011;11759;51.282;6.642;2022-10-16T11:46:40;4.50;;;0.80;;
23181;SDS011;11759;51.282;6.642;2022-10-16T11:49:27;4.20;;;1.10;;
23181;SDS011;11759;51.282;6.642;2022-10-16T11:52:06;5.25;;;1.13;;
23181;SDS011;11759;51.282;6.642;2022-10-16T11:54:42;3.85;;;1.13;;
23181;SDS011;11759;51.282;6.642;2022-10-16T11:57:16;6.53;;;1.20;;
23181;SDS011;11759;51.282;6.642;2022-10-16T11:59:47;8.13;;;1.25;;
23181;SDS011;11759;51.282;6.642;2022-10-16T12:02:27;5.80;;;1.05;;
23181;SDS011;11759;51.282;6.642;2022-10-16T12:07:50;5.63;;;1.20;;
23181;SDS011;11759;51.282;6.642;2022-10-16T12:10:30;4.25;;;1.08;;
23181;SDS011;11759;51.282;6.642;2022-10-16T12:16:04;3.78;;;0.90;;
23181;SDS011;11759;51.282;6.642;2022-10-16T12:18:31;6.13;;;1.08;;
23181;SDS011;11759;51.282;6.642;2022-10-16T12:20:58;3.60;;;0.82;;
23181;SDS011;11759;51.282;6.642;2022-10-16T12:23:30;1.90;;;0.88;;
23181;SDS011;11759;51.282;6.642;2022-10-16T12:25:58;3.65;;;0.98;;
23181;SDS011;11759;51.282;6.642;2022-10-16T12:28:26;5.25;;;0.98;;
23181;SDS011;11759;51.282;6.642;2022-10-16T12:30:55;4.00;;;1.13;;
23181;SDS011;11759;51.282;6.642;2022-10-16T12:35:57;3.28;;;0.90;;
23181;SDS011;11759;51.282;6.642;2022-10-16T12:38:25;2.80;;;0.80;;
23181;SDS011;11759;51.282;6.642;2022-10-16T12:40:55;5.90;;;0.93;;
23181;SDS011;11759;51.282;6.642;2022-10-16T12:43:40;2.95;;;1.00;;
23181;SDS011;11759;51.282;6.642;2022-10-16T12:48:35;3.63;;;1.00;;
23181;SDS011;11759;51.282;6.642;2022-10-16T12:51:24;2.45;;;0.60;;
23181;SDS011;11759;51.282;6.642;2022-10-16T12:54:16;4.28;;;0.88;;
23181;SDS011;11759;51.282;6.642;2022-10-16T13:02:07;3.67;;;0.80;;
23181;SDS011;11759;51.282;6.642;2022-10-16T13:12:49;3.75;;;0.77;;
23181;SDS011;11759;51.282;6.642;2022-10-16T13:15:58;2.13;;;0.70;;
23181;SDS011;11759;51.282;6.642;2022-10-16T13:18:38;3.28;;;0.82;;
23181;SDS011;11759;51.282;6.642;2022-10-16T13:21:18;2.05;;;0.60;;
23181;SDS011;11759;51.282;6.642;2022-10-16T13:29:10;3.75;;;0.82;;
23181;SDS011;11759;51.282;6.642;2022-10-16T13:31:40;5.43;;;1.20;;
23181;SDS011;11759;51.282;6.642;2022-10-16T13:34:19;6.10;;;1.50;;
23181;SDS011;11759;51.282;6.642;2022-10-16T13:36:48;3.40;;;1.60;;
23181;SDS011;11759;51.282;6.642;2022-10-16T13:39:24;3.55;;;1.10;;
23181;SDS011;11759;51.282;6.642;2022-10-16T13:44:53;3.83;;;0.93;;
23181;SDS011;11759;51.282;6.642;2022-10-16T13:47:21;4.50;;;1.00;;
23181;SDS011;11759;51.282;6.642;2022-10-16T13:52:40;2.08;;;0.68;;
23181;SDS011;11759;51.282;6.642;2022-10-16T13:55:14;4.47;;;0.85;;
23181;SDS011;11759;51.282;6.642;2022-10-16T13:57:42;2.90;;;0.77;;
23181;SDS011;11759;51.282;6.642;2022-10-16T14:00:18;2.00;;;0.80;;
23181;SDS011;11759;51.282;6.642;2022-10-16T14:02:55;3.97;;;1.02;;
23181;SDS011;11759;51.282;6.642;2022-10-16T14:05:24;1.85;;;0.68;;
23181;SDS011;11759;51.282;6.642;2022-10-16T14:07:51;1.70;;;0.68;;
23181;SDS011;11759;51.282;6.642;2022-10-16T14:10:26;2.15;;;0.73;;
23181;SDS011;11759;51.282;6.642;2022-10-16T14:12:58;2.30;;;0.70;;
23181;SDS011;11759;51.282;6.642;2022-10-16T14:15:33;5.10;;;0.93;;
23181;SDS011;11759;51.282;6.642;2022-10-16T14:20:28;2.88;;;0.98;;
23181;SDS011;11759;51.282;6.642;2022-10-16T14:23:04;5.45;;;0.80;;
23181;SDS011;11759;51.282;6.642;2022-10-16T14:25:44;3.13;;;0.77;;
23181;SDS011;11759;51.282;6.642;2022-10-16T14:30:49;4.22;;;1.05;;
23181;SDS011;11759;51.282;6.642;2022-10-16T14:36:03;3.40;;;0.70;;
23181;SDS011;11759;51.282;6.642;2022-10-16T14:38:32;2.92;;;0.93;;
23181;SDS011;11759;51.282;6.642;2022-10-16T14:40:59;3.90;;;0.82;;
23181;SDS011;11759;51.282;6.642;2022-10-16T14:43:29;2.40;;;0.82;;
23181;SDS011;11759;51.282;6.642;2022-10-16T14:45:58;2.47;;;0.80;;
23181;SDS011;11759;51.282;6.642;2022-10-16T14:48:25;2.13;;;1.00;;
23181;SDS011;11759;51.282;6.642;2022-10-16T14:50:53;6.35;;;2.78;;
23181;SDS011;11759;51.282;6.642;2022-10-16T14:53:20;2.10;;;1.02;;
23181;SDS011;11759;51.282;6.642;2022-10-16T14:55:46;3.55;;;1.02;;
23181;SDS011;11759;51.282;6.642;2022-10-16T15:00:48;5.45;;;2.58;;
23181;SDS011;11759;51.282;6.642;2022-10-16T15:03:15;7.75;;;2.88;;
23181;SDS011;11759;51.282;6.642;2022-10-16T15:05:41;5.32;;;2.20;;
23181;SDS011;11759;51.282;6.642;2022-10-16T15:08:08;6.30;;;2.15;;
23181;SDS011;11759;51.282;6.642;2022-10-16T15:10:37;6.88;;;1.98;;
23181;SDS011;11759;51.282;6.642;2022-10-16T15:15:33;5.95;;;1.73;;
23181;SDS011;11759;51.282;6.642;2022-10-16T15:18:01;7.90;;;1.73;;
23181;SDS011;11759;51.282;6.642;2022-10-16T15:20:32;7.40;;;1.38;;
23181;SDS011;11759;51.282;6.642;2022-10-16T15:23:01;2.58;;;1.08;;
23181;SDS011;11759;51.282;6.642;2022-10-16T15:25:37;9.18;;;2.40;;
23181;SDS011;11759;51.282;6.642;2022-10-16T15:28:05;5.53;;;2.13;;
23181;SDS011;11759;51.282;6.642;2022-10-16T15:30:33;3.40;;;1.88;;
23181;SDS011;11759;51.282;6.642;2022-10-16T15:33:00;3.53;;;1.38;;
23181;SDS011;11759;51.282;6.642;2022-10-16T15:35:28;3.45;;;1.27;;
23181;SDS011;11759;51.282;6.642;2022-10-16T15:37:55;8.40;;;2.05;;
23181;SDS011;11759;51.282;6.642;2022-10-16T15:40:21;7.15;;;1.35;;
23181;SDS011;11759;51.282;6.642;2022-10-16T15:42:49;1.83;;;1.20;;
23181;SDS011;11759;51.282;6.642;2022-10-16T15:45:15;4.95;;;1.83;;
23181;SDS011;11759;51.282;6.642;2022-10-16T15:47:42;7.57;;;1.70;;
23181;SDS011;11759;51.282;6.642;2022-10-16T15:50:11;6.72;;;1.80;;
23181;SDS011;11759;51.282;6.642;2022-10-16T15:52:39;6.60;;;1.85;;
23181;SDS011;11759;51.282;6.642;2022-10-16T15:55:07;3.20;;;1.30;;
23181;SDS011;11759;51.282;6.642;2022-10-16T15:57:36;6.95;;;1.33;;
23181;SDS011;11759;51.282;6.642;2022-10-16T16:00:07;6.50;;;1.47;;
23181;SDS011;11759;51.282;6.642;2022-10-16T16:02:39;3.00;;;1.42;;
23181;SDS011;11759;51.282;6.642;2022-10-16T16:05:08;3.85;;;1.42;;
23181;SDS011;11759;51.282;6.642;2022-10-16T16:07:35;8.85;;;1.70;;
23181;SDS011;11759;51.282;6.642;2022-10-16T16:10:03;4.55;;;1.40;;
23181;SDS011;11759;51.282;6.642;2022-10-16T16:12:31;5.72;;;1.30;;
23181;SDS011;11759;51.282;6.642;2022-10-16T16:14:58;4.88;;;1.52;;
23181;SDS011;11759;51.282;6.642;2022-10-16T16:17:30;5.18;;;1.33;;
23181;SDS011;11759;51.282;6.642;2022-10-16T16:19:58;6.88;;;1.67;;
23181;SDS011;11759;51.282;6.642;2022-10-16T16:22:26;6.10;;;2.00;;
23181;SDS011;11759;51.282;6.642;2022-10-16T16:24:53;4.72;;;2.05;;
23181;SDS011;11759;51.282;6.642;2022-10-16T16:27:20;6.88;;;1.95;;
23181;SDS011;11759;51.282;6.642;2022-10-16T16:29:47;5.10;;;1.73;;
23181;SDS011;11759;51.282;6.642;2022-10-16T16:32:14;7.88;;;2.03;;
23181;SDS011;11759;51.282;6.642;2022-10-16T16:34:41;6.47;;;2.33;;
23181;SDS011;11759;51.282;6.642;2022-10-16T16:37:08;4.25;;;2.17;;
23181;SDS011;11759;51.282;6.642;2022-10-16T16:39:34;7.65;;;1.95;;
23181;SDS011;11759;51.282;6.642;2022-10-16T16:42:01;4.22;;;1.88;;
23181;SDS011;11759;51.282;6.642;2022-10-16T16:44:30;3.10;;;1.40;;
23181;SDS011;11759;51.282;6.642;2022-10-16T16:46:57;4.35;;;1.83;;
23181;SDS011;11759;51.282;6.642;2022-10-16T16:49:24;6.57;;;2.05;;
23181;SDS011;11759;51.282;6.642;2022-10-16T16:51:52;7.60;;;2.10;;
23181;SDS011;11759;51.282;6.642;2022-10-16T16:54:19;5.53;;;1.70;;
23181;SDS011;11759;51.282;6.642;2022-10-16T16:56:46;6.53;;;1.95;;
23181;SDS011;11759;51.282;6.642;2022-10-16T16:59:13;5.25;;;1.60;;
23181;SDS011;11759;51.282;6.642;2022-10-16T17:01:42;7.80;;;1.90;;
23181;SDS011;11759;51.282;6.642;2022-10-16T17:04:09;4.10;;;1.42;;
23181;SDS011;11759;51.282;6.642;2022-10-16T17:06:36;7.00;;;2.13;;
23181;SDS011;11759;51.282;6.642;2022-10-16T17:09:03;7.05;;;1.80;;
23181;SDS011;11759;51.282;6.642;2022-10-16T17:11:31;9.68;;;2.17;;
23181;SDS011;11759;51.282;6.642;2022-10-16T17:13:59;6.50;;;1.77;;
23181;SDS011;11759;51.282;6.642;2022-10-16T17:16:30;5.60;;;2.30;;
23181;SDS011;11759;51.282;6.642;2022-10-16T17:19:02;6.75;;;2.40;;